Time;durP1;ratioP1;P1;durP2;ratioP2;P2;SDS_P1;SDS_P2;PMS_P1;PMS_P2;Temp;Humidity;BMP_temperature;BMP_pressure;BME280_temperature;BME280_humidity;BME280_pressure;Samples;Min_cycle;Max_cycle;Signal;HPM_P1;HPM_P2
2023/12/14 00:01:15;;;;;;;51.40;20.77;;;;;;;;;;5076503;28;20248;-77
2023/12/14 00:03:45;;;;;;;52.53;21.03;;;;;;;;;;5076132;28;20234;-77
2023/12/14 00:06:13;;;;;;;43.77;19.70;;;;;;;;;;5094371;28;20195;-77
2023/12/14 00:08:41;;;;;;;49.07;20.20;;;;;;;;;;5076154;28;20195;-77
2023/12/14 00:11:09;;;;;;;55.23;20.37;;;;;;;;;;5093977;28;20260;-77
2023/12/14 00:13:38;;;;;;;57.60;20.43;;;;;;;;;;5093954;28;20198;-76
2023/12/14 00:16:06;;;;;;;53.80;19.97;;;;;;;;;;5059411;28;20202;-77
2023/12/14 00:18:33;;;;;;;50.07;19.93;;;;;;;;;;5094191;28;20278;-77
2023/12/14 00:21:00;;;;;;;57.13;20.80;;;;;;;;;;5093868;28;20195;-77
2023/12/14 00:23:27;;;;;;;53.30;20.00;;;;;;;;;;5093879;28;20301;-77
2023/12/14 00:25:54;;;;;;;54.43;18.63;;;;;;;;;;5076027;28;20220;-77
2023/12/14 00:28:22;;;;;;;56.53;19.37;;;;;;;;;;5093599;28;20191;-76
2023/12/14 00:30:52;;;;;;;58.07;21.17;;;;;;;;;;5093715;28;20659;-76
2023/12/14 00:33:19;;;;;;;53.03;22.17;;;;;;;;;;5093656;28;20716;-76
2023/12/14 00:35:47;;;;;;;54.63;20.30;;;;;;;;;;5093929;28;20191;-77
2023/12/14 00:38:14;;;;;;;63.27;20.77;;;;;;;;;;5075567;28;20226;-77
2023/12/14 00:40:41;;;;;;;61.10;21.03;;;;;;;;;;5093634;28;20187;-77
2023/12/14 00:43:08;;;;;;;61.30;21.90;;;;;;;;;;5093134;28;20230;-77
2023/12/14 00:45:36;;;;;;;53.83;20.57;;;;;;;;;;5094047;28;20214;-77
2023/12/14 00:48:03;;;;;;;60.63;21.07;;;;;;;;;;5093190;28;20194;-77
2023/12/14 00:50:30;;;;;;;58.90;20.03;;;;;;;;;;5075931;28;20198;-76
2023/12/14 00:52:57;;;;;;;68.63;21.37;;;;;;;;;;5093518;28;20202;-77
2023/12/14 00:55:24;;;;;;;64.80;21.50;;;;;;;;;;5093408;28;20280;-77
2023/12/14 00:57:51;;;;;;;58.97;19.60;;;;;;;;;;5093198;28;20622;-77
2023/12/14 01:00:19;;;;;;;58.90;20.20;;;;;;;;;;5093521;28;20207;-77
2023/12/14 01:02:46;;;;;;;61.17;20.33;;;;;;;;;;5093395;28;20698;-77
2023/12/14 01:05:13;;;;;;;72.10;20.67;;;;;;;;;;5093422;28;20583;-77
2023/12/14 01:07:40;;;;;;;60.70;20.43;;;;;;;;;;5094952;28;20647;-77
2023/12/14 01:10:08;;;;;;;60.77;20.27;;;;;;;;;;5097389;28;20194;-77
2023/12/14 01:12:35;;;;;;;61.93;21.17;;;;;;;;;;5097217;28;20206;-76
2023/12/14 01:15:03;;;;;;;54.70;18.77;;;;;;;;;;5097274;28;20207;-77
2023/12/14 01:17:30;;;;;;;54.53;19.37;;;;;;;;;;5097361;28;20191;-76
2023/12/14 01:19:57;;;;;;;55.20;18.57;;;;;;;;;;5097133;28;20198;-77
2023/12/14 01:22:24;;;;;;;56.80;19.63;;;;;;;;;;5097069;28;20264;-76
2023/12/14 01:24:51;;;;;;;60.50;20.70;;;;;;;;;;5097099;28;20202;-76
2023/12/14 01:27:18;;;;;;;55.97;20.40;;;;;;;;;;5097207;28;20194;-77
2023/12/14 01:29:45;;;;;;;58.23;20.20;;;;;;;;;;5097341;28;20693;-77
2023/12/14 01:32:12;;;;;;;52.57;18.30;;;;;;;;;;5097216;28;20221;-77
2023/12/14 01:34:40;;;;;;;51.20;16.97;;;;;;;;;;5097097;28;20198;-76
2023/12/14 01:37:07;;;;;;;56.33;19.83;;;;;;;;;;5096944;28;20209;-77
2023/12/14 01:39:34;;;;;;;54.73;18.77;;;;;;;;;;5096913;28;20199;-77
2023/12/14 01:42:01;;;;;;;48.87;17.43;;;;;;;;;;5096958;28;20191;-77
2023/12/14 01:44:28;;;;;;;50.73;16.70;;;;;;;;;;5096787;28;20195;-76
2023/12/14 01:46:55;;;;;;;46.93;16.97;;;;;;;;;;5096802;28;20721;-77
2023/12/14 01:49:22;;;;;;;52.80;18.30;;;;;;;;;;5096586;28;20533;-77
2023/12/14 01:51:49;;;;;;;45.57;16.20;;;;;;;;;;5078504;28;20213;-77
2023/12/14 01:54:16;;;;;;;44.97;17.90;;;;;;;;;;5096288;28;20227;-77
2023/12/14 01:56:43;;;;;;;51.07;16.97;;;;;;;;;;5096519;28;20226;-77
2023/12/14 01:59:11;;;;;;;50.17;15.33;;;;;;;;;;5096608;28;20190;-77
2023/12/14 02:01:43;;;;;;;53.77;16.87;;;;;;;;;;5078477;28;20232;-76
2023/12/14 02:04:11;;;;;;;51.60;16.83;;;;;;;;;;5096262;28;20214;-77
2023/12/14 02:06:39;;;;;;;46.60;16.93;;;;;;;;;;5096337;28;20190;-77
2023/12/14 02:09:06;;;;;;;58.83;17.70;;;;;;;;;;5078250;28;20203;-77
2023/12/14 02:11:33;;;;;;;49.57;16.40;;;;;;;;;;5096594;28;20201;-76
2023/12/14 02:14:05;;;;;;;53.30;17.43;;;;;;;;;;5096023;28;20198;-77
2023/12/14 02:16:32;;;;;;;43.20;16.70;;;;;;;;;;5078740;28;20205;-77
2023/12/14 02:18:59;;;;;;;56.73;18.20;;;;;;;;;;5078007;28;20194;-77
2023/12/14 02:21:26;;;;;;;56.33;19.03;;;;;;;;;;5078305;28;20218;-77
2023/12/14 02:23:54;;;;;;;47.30;16.87;;;;;;;;;;5096081;28;20222;-77
2023/12/14 02:26:21;;;;;;;46.97;16.70;;;;;;;;;;5096441;28;20210;-76
2023/12/14 02:28:48;;;;;;;46.37;16.57;;;;;;;;;;5096137;28;20191;-77
2023/12/14 02:31:15;;;;;;;46.67;16.17;;;;;;;;;;5096006;28;20203;-76
2023/12/14 02:33:42;;;;;;;49.20;16.33;;;;;;;;;;5078046;28;20530;-77
2023/12/14 02:36:09;;;;;;;46.13;16.13;;;;;;;;;;5096014;28;20187;-76
2023/12/14 02:38:37;;;;;;;49.40;16.20;;;;;;;;;;5095812;28;20632;-76
2023/12/14 02:41:04;;;;;;;44.20;15.30;;;;;;;;;;5095891;28;20232;-76
2023/12/14 02:43:31;;;;;;;42.17;15.27;;;;;;;;;;5095828;28;20276;-77
2023/12/14 02:46:01;;;;;;;44.53;14.37;;;;;;;;;;5095418;28;20201;-76
2023/12/14 02:48:29;;;;;;;51.13;16.97;;;;;;;;;;5095718;28;20199;-76
2023/12/14 02:50:57;;;;;;;54.30;16.20;;;;;;;;;;5095409;28;20203;-76
2023/12/14 02:53:24;;;;;;;50.57;16.37;;;;;;;;;;5095729;28;20198;-77
2023/12/14 02:55:51;;;;;;;46.07;16.73;;;;;;;;;;5095396;28;20234;-77
2023/12/14 02:58:19;;;;;;;53.07;16.77;;;;;;;;;;5095501;28;20199;-76
2023/12/14 03:00:46;;;;;;;43.93;16.33;;;;;;;;;;5077560;28;20701;-76
2023/12/14 03:03:13;;;;;;;44.23;15.90;;;;;;;;;;5086801;28;20223;-77
2023/12/14 03:05:40;;;;;;;46.93;16.07;;;;;;;;;;5073834;28;20195;-77
2023/12/14 03:08:07;;;;;;;42.33;15.27;;;;;;;;;;5073292;28;20198;-77
2023/12/14 03:10:34;;;;;;;41.67;15.80;;;;;;;;;;5073510;28;20590;-76
2023/12/14 03:13:02;;;;;;;47.07;15.53;;;;;;;;;;5055572;28;20183;-77
2023/12/14 03:15:28;;;;;;;44.37;14.80;;;;;;;;;;5073493;28;20668;-77
2023/12/14 03:17:56;;;;;;;48.50;15.80;;;;;;;;;;5055805;28;20196;-77
2023/12/14 03:20:23;;;;;;;45.93;15.03;;;;;;;;;;5073461;28;20191;-77
2023/12/14 03:22:51;;;;;;;40.30;14.93;;;;;;;;;;5073017;28;20219;-76
2023/12/14 03:25:18;;;;;;;50.80;16.67;;;;;;;;;;5073470;28;20214;-77
2023/12/14 03:27:48;;;;;;;49.23;16.27;;;;;;;;;;5072848;28;20195;-77
2023/12/14 03:30:15;;;;;;;39.93;14.27;;;;;;;;;;5057161;28;20195;-77
2023/12/14 03:32:42;;;;;;;47.83;15.03;;;;;;;;;;5074414;28;20203;-77
2023/12/14 03:35:10;;;;;;;48.37;15.40;;;;;;;;;;5074223;28;20297;-77
2023/12/14 03:37:37;;;;;;;48.93;15.67;;;;;;;;;;5074266;28;20702;-77
2023/12/14 03:40:05;;;;;;;44.03;14.60;;;;;;;;;;5074295;28;20245;-77
2023/12/14 03:42:32;;;;;;;49.70;15.33;;;;;;;;;;5074266;28;20192;-77
2023/12/14 03:45:00;;;;;;;51.93;14.97;;;;;;;;;;5074332;28;20211;-76
2023/12/14 03:47:27;;;;;;;50.93;15.50;;;;;;;;;;5074407;28;20210;-77
2023/12/14 03:49:54;;;;;;;61.07;16.93;;;;;;;;;;5074093;28;20200;-78
2023/12/14 03:52:21;;;;;;;48.87;15.43;;;;;;;;;;5040042;28;20210;-77
2023/12/14 03:54:48;;;;;;;49.77;15.17;;;;;;;;;;5074080;28;20235;-77
2023/12/14 03:57:15;;;;;;;50.67;15.10;;;;;;;;;;5074371;28;20584;-77
2023/12/14 03:59:42;;;;;;;47.43;15.77;;;;;;;;;;5056501;28;20202;-77
2023/12/14 04:02:09;;;;;;;51.70;16.07;;;;;;;;;;5074162;28;20199;-77
2023/12/14 04:04:36;;;;;;;54.43;16.67;;;;;;;;;;5073854;28;20243;-77
2023/12/14 04:07:03;;;;;;;53.37;14.70;;;;;;;;;;5073899;28;20214;-77
2023/12/14 04:09:30;;;;;;;48.60;16.73;;;;;;;;;;5073804;28;20196;-77
2023/12/14 04:11:58;;;;;;;47.60;15.87;;;;;;;;;;5055997;28;20210;-77
2023/12/14 04:14:24;;;;;;;47.67;15.83;;;;;;;;;;5073882;28;20199;-77
2023/12/14 04:16:52;;;;;;;49.10;15.17;;;;;;;;;;5073260;28;20245;-76
2023/12/14 04:19:19;;;;;;;54.50;16.17;;;;;;;;;;5073625;28;20195;-76
2023/12/14 04:21:46;;;;;;;57.87;16.80;;;;;;;;;;5073486;28;20540;-77
2023/12/14 04:24:13;;;;;;;69.80;16.33;;;;;;;;;;5073497;28;20237;-76
2023/12/14 04:26:40;;;;;;;45.97;15.27;;;;;;;;;;5073182;28;20196;-76
2023/12/14 04:29:07;;;;;;;53.50;15.97;;;;;;;;;;5073355;28;20202;-76
2023/12/14 04:31:35;;;;;;;64.40;15.90;;;;;;;;;;5073772;28;20191;-76
2023/12/14 04:34:02;;;;;;;57.90;16.60;;;;;;;;;;5073336;28;20706;-77
2023/12/14 04:36:29;;;;;;;48.30;14.40;;;;;;;;;;5055899;28;20218;-76
2023/12/14 04:38:56;;;;;;;61.43;16.07;;;;;;;;;;5073563;28;20282;-76
2023/12/14 04:41:23;;;;;;;72.33;16.50;;;;;;;;;;5073403;28;20195;-76
2023/12/14 04:43:50;;;;;;;53.67;15.23;;;;;;;;;;5073142;28;20276;-76
2023/12/14 04:46:18;;;;;;;55.60;15.93;;;;;;;;;;5073345;28;20195;-77
2023/12/14 04:48:44;;;;;;;63.63;16.90;;;;;;;;;;5073338;28;20192;-77
2023/12/14 04:51:12;;;;;;;72.23;17.57;;;;;;;;;;5076361;28;20195;-78
2023/12/14 04:53:39;;;;;;;61.20;17.77;;;;;;;;;;5073618;28;20274;-77
2023/12/14 04:56:11;;;;;;;79.87;21.37;;;;;;;;;;5079583;28;20312;-77
2023/12/14 04:58:39;;;;;;;66.17;20.83;;;;;;;;;;5084724;28;20201;-77
2023/12/14 05:01:07;;;;;;;85.83;22.03;;;;;;;;;;5061301;28;20280;-77
2023/12/14 05:03:35;;;;;;;102.83;24.23;;;;;;;;;;5068574;28;20768;-77
2023/12/14 05:06:02;;;;;;;75.23;17.47;;;;;;;;;;5077363;28;20237;-77
2023/12/14 05:08:29;;;;;;;69.80;15.17;;;;;;;;;;5061414;28;20704;-77
2023/12/14 05:10:57;;;;;;;61.53;15.50;;;;;;;;;;5054375;28;20230;-77
2023/12/14 05:13:24;;;;;;;64.20;15.53;;;;;;;;;;5041776;28;20238;-76
2023/12/14 05:15:51;;;;;;;68.50;17.27;;;;;;;;;;5058721;28;20216;-76
2023/12/14 05:18:18;;;;;;;75.80;15.33;;;;;;;;;;5071870;28;20223;-77
2023/12/14 05:20:46;;;;;;;72.00;15.30;;;;;;;;;;5054554;28;20223;-77
2023/12/14 05:23:14;;;;;;;96.23;19.70;;;;;;;;;;5053811;28;20251;-77
2023/12/14 05:25:41;;;;;;;85.30;21.53;;;;;;;;;;5079190;28;20215;-77
2023/12/14 05:28:08;;;;;;;84.10;19.73;;;;;;;;;;5091678;28;20318;-77
2023/12/14 05:30:35;;;;;;;70.00;16.33;;;;;;;;;;5091772;28;20231;-77
2023/12/14 05:33:02;;;;;;;87.17;16.57;;;;;;;;;;5090674;28;20231;-77
2023/12/14 05:35:30;;;;;;;76.73;16.07;;;;;;;;;;5091196;28;20242;-77
2023/12/14 05:37:57;;;;;;;104.33;15.93;;;;;;;;;;5090144;28;20230;-77
2023/12/14 05:40:24;;;;;;;92.13;16.13;;;;;;;;;;5091410;28;20219;-77
2023/12/14 05:42:51;;;;;;;80.77;15.27;;;;;;;;;;5091339;28;20237;-78
2023/12/14 05:45:19;;;;;;;82.77;15.53;;;;;;;;;;5091545;28;20234;-77
2023/12/14 05:47:46;;;;;;;76.67;15.53;;;;;;;;;;5074109;28;20232;-77
2023/12/14 05:50:13;;;;;;;59.30;14.90;;;;;;;;;;5071567;28;20227;-77
2023/12/14 05:52:40;;;;;;;64.33;15.10;;;;;;;;;;5070726;28;20235;-77
2023/12/14 05:55:11;;;;;;;66.73;15.53;;;;;;;;;;5076427;28;20363;-77
2023/12/14 05:57:38;;;;;;;54.03;15.33;;;;;;;;;;5074104;28;20239;-77
2023/12/14 06:00:07;;;;;;;61.17;17.13;;;;;;;;;;5056846;28;20849;-77
2023/12/14 06:02:36;;;;;;;57.17;15.43;;;;;;;;;;5074139;28;20223;-77
2023/12/14 06:05:04;;;;;;;49.73;13.93;;;;;;;;;;5075739;28;20272;-77
2023/12/14 06:07:31;;;;;;;55.30;15.53;;;;;;;;;;5071913;28;20227;-77
2023/12/14 06:09:59;;;;;;;68.90;15.93;;;;;;;;;;5074768;28;20226;-77
2023/12/14 06:12:26;;;;;;;70.37;15.47;;;;;;;;;;5082617;28;20696;-77
2023/12/14 06:14:53;;;;;;;47.87;15.17;;;;;;;;;;5089919;28;20226;-77
2023/12/14 06:17:20;;;;;;;69.70;14.87;;;;;;;;;;5091619;28;20195;-77
2023/12/14 06:19:47;;;;;;;61.67;15.03;;;;;;;;;;5093288;28;20249;-76
2023/12/14 06:22:14;;;;;;;54.53;14.53;;;;;;;;;;5087253;28;20191;-77
2023/12/14 06:24:41;;;;;;;56.93;16.03;;;;;;;;;;5087047;28;20215;-77
2023/12/14 06:27:08;;;;;;;63.07;15.00;;;;;;;;;;5093362;28;20533;-77
2023/12/14 06:29:35;;;;;;;63.43;15.63;;;;;;;;;;5094833;28;20191;-77
2023/12/14 06:32:03;;;;;;;75.67;20.97;;;;;;;;;;5095193;28;20203;-77
2023/12/14 06:34:30;;;;;;;61.90;16.13;;;;;;;;;;5095359;28;20195;-77
2023/12/14 06:36:59;;;;;;;56.80;15.67;;;;;;;;;;5095188;28;20191;-77
2023/12/14 06:39:27;;;;;;;51.20;15.47;;;;;;;;;;5095258;28;20202;-77
2023/12/14 06:41:54;;;;;;;59.33;14.63;;;;;;;;;;5095544;28;20244;-77
2023/12/14 06:44:26;;;;;;;52.17;15.43;;;;;;;;;;5095421;28;20223;-77
2023/12/14 06:46:53;;;;;;;63.43;16.53;;;;;;;;;;5095380;28;20213;-77
2023/12/14 06:49:21;;;;;;;61.00;15.37;;;;;;;;;;5060904;28;20245;-77
2023/12/14 06:51:48;;;;;;;70.00;17.53;;;;;;;;;;5095579;28;20191;-77
2023/12/14 06:54:15;;;;;;;70.43;16.27;;;;;;;;;;5095078;28;20230;-77
2023/12/14 06:56:42;;;;;;;63.13;15.43;;;;;;;;;;5095259;28;20252;-77
2023/12/14 06:59:09;;;;;;;59.60;16.00;;;;;;;;;;5077366;28;20190;-77
2023/12/14 07:01:36;;;;;;;62.07;16.57;;;;;;;;;;5095117;28;20195;-77
2023/12/14 07:04:04;;;;;;;52.47;14.57;;;;;;;;;;5094751;28;20215;-77
2023/12/14 07:06:31;;;;;;;56.70;15.40;;;;;;;;;;5094758;28;20526;-77
2023/12/14 07:08:58;;;;;;;66.77;16.53;;;;;;;;;;5095284;28;20195;-77
2023/12/14 07:11:25;;;;;;;67.63;16.33;;;;;;;;;;5095279;28;20298;-77
2023/12/14 07:13:52;;;;;;;64.57;16.67;;;;;;;;;;5095059;28;20560;-77
2023/12/14 07:16:19;;;;;;;71.77;18.33;;;;;;;;;;5095175;28;20206;-77
2023/12/14 07:18:47;;;;;;;76.50;18.03;;;;;;;;;;5095103;28;20248;-77
2023/12/14 07:21:14;;;;;;;73.30;18.37;;;;;;;;;;5077003;28;20325;-77
2023/12/14 07:23:41;;;;;;;72.33;18.10;;;;;;;;;;5094940;28;20191;-77
2023/12/14 07:26:08;;;;;;;59.90;17.90;;;;;;;;;;5094913;28;20194;-77
2023/12/14 07:28:36;;;;;;;65.83;18.20;;;;;;;;;;5094977;28;20281;-77
2023/12/14 07:31:03;;;;;;;83.50;23.03;;;;;;;;;;5095101;28;20258;-77
2023/12/14 07:33:30;;;;;;;87.37;22.40;;;;;;;;;;5094747;28;20195;-77
2023/12/14 07:35:58;;;;;;;77.83;19.43;;;;;;;;;;5094722;28;20195;-77
2023/12/14 07:38:25;;;;;;;69.70;19.63;;;;;;;;;;5094775;28;20197;-77
2023/12/14 07:40:52;;;;;;;76.93;19.43;;;;;;;;;;5094700;28;20205;-77
2023/12/14 07:43:20;;;;;;;84.40;20.50;;;;;;;;;;5094754;28;20191;-77
2023/12/14 07:45:47;;;;;;;92.10;20.87;;;;;;;;;;5094251;28;20261;-77
2023/12/14 07:48:14;;;;;;;84.27;19.80;;;;;;;;;;5094473;28;20563;-77
2023/12/14 07:50:41;;;;;;;88.30;20.57;;;;;;;;;;5094588;28;20209;-77
2023/12/14 07:53:08;;;;;;;82.80;19.93;;;;;;;;;;5094463;28;20207;-77
2023/12/14 07:55:35;;;;;;;90.23;20.50;;;;;;;;;;5093834;28;20234;-77
2023/12/14 07:58:03;;;;;;;95.70;21.10;;;;;;;;;;5094131;28;20216;-77
2023/12/14 08:00:33;;;;;;;84.87;20.20;;;;;;;;;;5076117;28;20203;-77
2023/12/14 08:03:00;;;;;;;82.60;19.77;;;;;;;;;;5094229;28;20199;-77
2023/12/14 08:05:28;;;;;;;92.20;19.97;;;;;;;;;;5094116;28;20242;-77
2023/12/14 08:07:55;;;;;;;90.10;17.93;;;;;;;;;;5094129;28;20191;-77
2023/12/14 08:10:22;;;;;;;75.10;19.27;;;;;;;;;;5094048;28;20198;-77
2023/12/14 08:12:51;;;;;;;86.87;20.03;;;;;;;;;;5093955;28;20198;-77
2023/12/14 08:15:18;;;;;;;78.47;18.07;;;;;;;;;;5093703;28;20289;-77
2023/12/14 08:17:45;;;;;;;70.47;18.70;;;;;;;;;;5075762;28;20205;-77
2023/12/14 08:20:13;;;;;;;79.47;17.87;;;;;;;;;;5093884;28;20198;-77
2023/12/14 08:22:46;;;;;;;73.33;17.77;;;;;;;;;;5093811;28;20199;-77
2023/12/14 08:25:17;;;;;;;63.10;17.47;;;;;;;;;;5093670;28;20268;-77
2023/12/14 08:27:45;;;;;;;73.83;17.20;;;;;;;;;;5093733;28;20190;-77
2023/12/14 08:30:13;;;;;;;77.03;16.87;;;;;;;;;;5093839;28;20218;-77
2023/12/14 08:32:40;;;;;;;72.87;17.70;;;;;;;;;;5093743;28;20194;-77
2023/12/14 08:35:08;;;;;;;72.13;16.83;;;;;;;;;;5093475;28;20202;-77
2023/12/14 08:37:36;;;;;;;68.13;17.77;;;;;;;;;;5093718;28;20195;-77
2023/12/14 08:40:05;;;;;;;60.13;16.43;;;;;;;;;;5093552;28;20206;-77
2023/12/14 08:42:33;;;;;;;56.33;15.40;;;;;;;;;;5075725;28;20560;-77
2023/12/14 08:45:01;;;;;;;62.63;17.20;;;;;;;;;;5093269;28;20222;-77
2023/12/14 08:47:28;;;;;;;53.13;15.80;;;;;;;;;;5076115;28;20194;-77
2023/12/14 08:49:55;;;;;;;53.60;14.70;;;;;;;;;;5093094;28;20202;-77
2023/12/14 08:52:22;;;;;;;50.90;14.67;;;;;;;;;;5093620;28;20214;-77
2023/12/14 08:54:49;;;;;;;51.07;14.93;;;;;;;;;;5093202;28;20562;-77
2023/12/14 08:57:17;;;;;;;46.33;13.60;;;;;;;;;;5093619;28;20222;-78
2023/12/14 08:59:43;;;;;;;55.13;14.97;;;;;;;;;;5093192;28;20590;-77
2023/12/14 09:02:11;;;;;;;51.53;15.10;;;;;;;;;;5093629;28;20202;-77
2023/12/14 09:04:38;;;;;;;41.67;13.87;;;;;;;;;;5092830;28;20222;-77
2023/12/14 09:07:06;;;;;;;38.63;13.20;;;;;;;;;;5093652;28;20220;-77
2023/12/14 09:09:33;;;;;;;51.60;14.70;;;;;;;;;;5092320;28;20194;-77
2023/12/14 09:12:00;;;;;;;49.13;14.80;;;;;;;;;;5084850;28;20198;-77
2023/12/14 09:14:27;;;;;;;49.80;14.47;;;;;;;;;;5093139;28;20199;-77
2023/12/14 09:16:54;;;;;;;38.03;13.20;;;;;;;;;;5092931;28;20195;-77
2023/12/14 09:19:21;;;;;;;44.83;14.63;;;;;;;;;;5093266;28;20230;-78
2023/12/14 09:21:49;;;;;;;57.70;15.20;;;;;;;;;;5093225;28;20194;-77
2023/12/14 09:24:15;;;;;;;55.27;15.97;;;;;;;;;;5092856;28;20207;-77
2023/12/14 09:26:43;;;;;;;52.90;15.37;;;;;;;;;;5075564;28;20636;-77
2023/12/14 09:29:10;;;;;;;36.87;14.13;;;;;;;;;;5095442;28;20691;-78
2023/12/14 09:31:41;;;;;;;44.47;13.47;;;;;;;;;;5096907;28;20202;-77
2023/12/14 09:34:10;;;;;;;40.13;13.40;;;;;;;;;;5097204;28;20191;-77
2023/12/14 09:36:39;;;;;;;52.47;15.30;;;;;;;;;;5096723;28;20195;-77
2023/12/14 09:39:10;;;;;;;54.03;15.57;;;;;;;;;;5096956;28;20202;-77
2023/12/14 09:41:38;;;;;;;49.40;14.70;;;;;;;;;;5096990;28;20199;-78
2023/12/14 09:44:09;;;;;;;53.33;14.37;;;;;;;;;;5096964;28;20241;-78
2023/12/14 09:46:37;;;;;;;47.00;14.37;;;;;;;;;;5096753;28;20234;-77
2023/12/14 09:49:05;;;;;;;57.73;14.83;;;;;;;;;;5096466;28;20201;-77
2023/12/14 09:51:35;;;;;;;51.23;14.13;;;;;;;;;;5079604;28;20225;-77
2023/12/14 09:54:03;;;;;;;55.47;14.30;;;;;;;;;;5096713;28;20222;-77
2023/12/14 09:56:30;;;;;;;57.60;15.17;;;;;;;;;;5097094;28;20203;-77
2023/12/14 09:58:58;;;;;;;44.80;14.73;;;;;;;;;;5096369;28;20198;-77
2023/12/14 10:01:27;;;;;;;47.03;12.73;;;;;;;;;;5096657;28;20195;-77
2023/12/14 10:04:11;;;;;;;48.00;13.17;;;;;;;;;;5096273;28;20199;-78
2023/12/14 10:06:39;;;;;;;37.73;12.67;;;;;;;;;;5096794;28;20222;-77
2023/12/14 10:09:09;;;;;;;45.93;13.13;;;;;;;;;;5096342;28;20252;-77
2023/12/14 10:11:36;;;;;;;43.13;13.00;;;;;;;;;;5078768;28;20235;-77
2023/12/14 10:14:17;;;;;;;48.97;14.40;;;;;;;;;;5078650;28;20191;-77
2023/12/14 10:16:45;;;;;;;48.73;14.20;;;;;;;;;;5096473;28;20213;-77
2023/12/14 10:19:12;;;;;;;49.00;12.97;;;;;;;;;;5096255;28;20290;-77
2023/12/14 10:21:40;;;;;;;46.43;12.50;;;;;;;;;;5096532;28;20225;-77
2023/12/14 10:24:07;;;;;;;41.57;12.17;;;;;;;;;;5096365;28;20260;-77
2023/12/14 10:26:35;;;;;;;49.23;14.70;;;;;;;;;;5095982;28;20226;-77
2023/12/14 10:29:04;;;;;;;56.53;14.67;;;;;;;;;;5095595;28;20629;-77
2023/12/14 10:31:37;;;;;;;49.40;13.90;;;;;;;;;;5096192;28;20221;-77
2023/12/14 10:34:05;;;;;;;56.17;14.67;;;;;;;;;;5078789;28;20194;-77
2023/12/14 10:36:32;;;;;;;50.47;13.53;;;;;;;;;;5078663;28;20198;-77
2023/12/14 10:39:00;;;;;;;42.00;13.07;;;;;;;;;;5060823;28;20706;-77
2023/12/14 10:41:31;;;;;;;40.13;12.73;;;;;;;;;;5095640;28;20655;-77
2023/12/14 10:44:00;;;;;;;40.80;12.50;;;;;;;;;;5095627;28;20285;-77
2023/12/14 10:46:48;;;;;;;57.07;14.57;;;;;;;;;;5096133;28;20209;-77
2023/12/14 10:49:15;;;;;;;51.77;14.97;;;;;;;;;;5077448;28;20248;-77
2023/12/14 10:51:43;;;;;;;52.07;16.57;;;;;;;;;;5095465;28;20198;-77
2023/12/14 10:54:14;;;;;;;77.60;19.87;;;;;;;;;;5095617;28;20265;-77
2023/12/14 10:56:42;;;;;;;64.47;17.17;;;;;;;;;;5095446;28;20206;-77
2023/12/14 10:59:09;;;;;;;70.83;17.97;;;;;;;;;;5095115;28;20203;-77
2023/12/14 11:01:39;;;;;;;58.73;16.27;;;;;;;;;;5084372;28;20199;-77
2023/12/14 11:04:07;;;;;;;66.73;17.77;;;;;;;;;;5074822;28;20309;-77
2023/12/14 11:06:38;;;;;;;54.93;17.63;;;;;;;;;;5075229;28;20219;-77
2023/12/14 11:09:06;;;;;;;68.03;16.83;;;;;;;;;;5075156;28;20187;-78
2023/12/14 11:11:41;;;;;;;51.53;15.07;;;;;;;;;;5075016;28;20248;-77
2023/12/14 11:14:10;;;;;;;59.10;15.33;;;;;;;;;;5040728;28;20204;-77
2023/12/14 11:16:44;;;;;;;44.93;15.17;;;;;;;;;;5075075;28;20555;-77
2023/12/14 11:19:24;;;;;;;56.20;15.53;;;;;;;;;;5074788;28;20648;-77
2023/12/14 11:21:57;;;;;;;54.60;14.17;;;;;;;;;;5074556;28;20560;-77
2023/12/14 11:24:25;;;;;;;54.67;15.40;;;;;;;;;;5074620;28;20199;-77
2023/12/14 11:26:54;;;;;;;54.90;14.53;;;;;;;;;;5057035;28;20722;-77
2023/12/14 11:29:22;;;;;;;51.03;14.90;;;;;;;;;;5074524;28;20199;-78
2023/12/14 11:31:50;;;;;;;44.13;14.43;;;;;;;;;;5074341;28;20195;-78
2023/12/14 11:34:17;;;;;;;44.70;14.90;;;;;;;;;;5056437;28;20203;-78
2023/12/14 11:36:45;;;;;;;47.80;14.83;;;;;;;;;;5074479;28;20203;-78
2023/12/14 11:39:13;;;;;;;43.03;14.00;;;;;;;;;;5074263;28;20203;-77
2023/12/14 11:41:40;;;;;;;48.53;14.70;;;;;;;;;;5074160;28;20199;-78
2023/12/14 11:44:07;;;;;;;48.23;14.03;;;;;;;;;;5074270;28;20206;-77
2023/12/14 11:46:34;;;;;;;41.73;15.13;;;;;;;;;;5074090;28;20219;-77
2023/12/14 11:49:03;;;;;;;38.53;13.63;;;;;;;;;;5073989;28;20210;-78
2023/12/14 11:51:33;;;;;;;45.40;14.83;;;;;;;;;;5073424;28;20187;-78
2023/12/14 11:54:00;;;;;;;41.57;14.03;;;;;;;;;;5056291;28;20597;-78
2023/12/14 11:56:30;;;;;;;38.23;13.97;;;;;;;;;;5073933;28;20195;-77
2023/12/14 11:58:57;;;;;;;40.23;14.57;;;;;;;;;;5074142;28;20207;-77
2023/12/14 12:01:26;;;;;;;42.03;13.53;;;;;;;;;;5073699;28;20261;-77
2023/12/14 12:03:53;;;;;;;43.30;14.60;;;;;;;;;;5073879;28;20207;-77
2023/12/14 12:06:25;;;;;;;44.37;13.00;;;;;;;;;;5073460;28;20572;-77
2023/12/14 12:08:52;;;;;;;37.67;13.80;;;;;;;;;;5056885;28;20641;-77
2023/12/14 12:11:25;;;;;;;32.87;12.43;;;;;;;;;;5055774;28;20199;-77
2023/12/14 12:13:57;;;;;;;37.23;13.00;;;;;;;;;;5073947;28;20708;-78
2023/12/14 12:16:25;;;;;;;41.43;13.77;;;;;;;;;;5056240;28;20195;-78
2023/12/14 12:18:52;;;;;;;32.60;13.30;;;;;;;;;;5073759;28;20237;-77
2023/12/14 12:21:20;;;;;;;38.07;13.40;;;;;;;;;;5073554;28;20195;-77
2023/12/14 12:23:46;;;;;;;39.47;14.67;;;;;;;;;;5073704;28;20230;-77
2023/12/14 12:26:14;;;;;;;48.60;14.57;;;;;;;;;;5073631;28;20226;-77
2023/12/14 12:28:41;;;;;;;44.50;13.37;;;;;;;;;;5056072;28;20210;-77
2023/12/14 12:31:08;;;;;;;32.73;13.03;;;;;;;;;;5073746;28;20222;-77
2023/12/14 12:33:37;;;;;;;32.10;13.10;;;;;;;;;;5073400;28;20214;-77
2023/12/14 12:36:06;;;;;;;36.67;13.07;;;;;;;;;;5073462;28;20529;-77
2023/12/14 12:38:33;;;;;;;37.20;14.90;;;;;;;;;;5073366;28;20225;-78
2023/12/14 12:41:01;;;;;;;38.30;13.93;;;;;;;;;;5065297;28;20191;-77
2023/12/14 12:43:29;;;;;;;31.47;13.07;;;;;;;;;;5073334;28;20203;-77
2023/12/14 12:45:58;;;;;;;32.70;13.03;;;;;;;;;;5055905;28;20234;-77
2023/12/14 12:48:25;;;;;;;35.43;12.30;;;;;;;;;;5073641;28;20218;-78
2023/12/14 12:50:54;;;;;;;32.17;11.97;;;;;;;;;;5081336;28;20210;-78
2023/12/14 12:53:21;;;;;;;24.70;11.93;;;;;;;;;;5088023;28;20199;-77
2023/12/14 12:55:49;;;;;;;28.73;10.73;;;;;;;;;;5092931;28;20237;-77
2023/12/14 12:58:16;;;;;;;30.17;12.17;;;;;;;;;;5093143;28;20218;-77
2023/12/14 13:00:43;;;;;;;24.37;11.47;;;;;;;;;;5092816;28;20187;-77
2023/12/14 13:03:10;;;;;;;25.07;10.90;;;;;;;;;;5093908;28;20643;-77
2023/12/14 13:05:38;;;;;;;21.83;10.20;;;;;;;;;;5097096;28;20219;-77
2023/12/14 13:08:05;;;;;;;25.10;10.47;;;;;;;;;;5097599;28;20210;-77
2023/12/14 13:10:32;;;;;;;22.13;10.07;;;;;;;;;;5096641;28;20197;-77
2023/12/14 13:12:59;;;;;;;19.87;9.07;;;;;;;;;;5096848;28;20190;-77
2023/12/14 13:15:28;;;;;;;19.10;8.73;;;;;;;;;;5096328;28;20251;-77
2023/12/14 13:17:57;;;;;;;17.73;8.97;;;;;;;;;;5096872;28;20211;-77
2023/12/14 13:20:24;;;;;;;18.83;8.83;;;;;;;;;;5096334;28;20676;-77
2023/12/14 13:22:52;;;;;;;17.27;8.00;;;;;;;;;;5096573;28;20269;-77
2023/12/14 13:25:23;;;;;;;14.43;7.57;;;;;;;;;;5079023;28;20191;-77
2023/12/14 13:27:50;;;;;;;19.27;8.60;;;;;;;;;;5096455;28;20537;-77
2023/12/14 13:30:17;;;;;;;18.63;8.57;;;;;;;;;;5096111;28;20191;-77
2023/12/14 13:32:45;;;;;;;15.97;7.63;;;;;;;;;;5091162;28;20223;-77
2023/12/14 13:35:13;;;;;;;14.50;7.37;;;;;;;;;;5087740;28;20206;-77
2023/12/14 13:37:41;;;;;;;15.20;7.47;;;;;;;;;;5075280;28;20626;-77
2023/12/14 13:40:10;;;;;;;12.93;6.80;;;;;;;;;;5085020;28;20219;-77
2023/12/14 13:42:41;;;;;;;15.07;7.70;;;;;;;;;;5061316;28;20229;-77
2023/12/14 13:45:26;;;;;;;14.83;7.57;;;;;;;;;;5074637;28;20229;-78
2023/12/14 13:47:53;;;;;;;14.70;7.83;;;;;;;;;;5079336;28;20256;-77
2023/12/14 13:50:21;;;;;;;17.90;10.77;;;;;;;;;;5078093;28;20221;-78
2023/12/14 13:52:48;;;;;;;18.40;10.27;;;;;;;;;;5083113;28;20258;-77
2023/12/14 13:55:16;;;;;;;13.30;7.57;;;;;;;;;;5079323;28;20235;-77
2023/12/14 13:57:43;;;;;;;18.37;8.87;;;;;;;;;;5060430;28;20273;-77
2023/12/14 14:00:11;;;;;;;15.00;8.03;;;;;;;;;;5083530;28;20586;-77
2023/12/14 14:02:38;;;;;;;18.67;7.80;;;;;;;;;;5079006;28;20555;-77
2023/12/14 14:05:05;;;;;;;17.07;9.13;;;;;;;;;;5083231;28;20218;-77
2023/12/14 14:07:32;;;;;;;15.60;7.67;;;;;;;;;;5080486;28;20334;-77
2023/12/14 14:10:00;;;;;;;17.20;8.77;;;;;;;;;;5079496;28;20219;-78
2023/12/14 14:12:27;;;;;;;26.33;12.03;;;;;;;;;;5081807;28;20965;-77
2023/12/14 14:14:54;;;;;;;58.03;25.50;;;;;;;;;;5075126;28;20224;-77
2023/12/14 14:17:21;;;;;;;16.40;9.13;;;;;;;;;;5074358;28;20231;-77
2023/12/14 14:19:49;;;;;;;14.67;7.20;;;;;;;;;;5073324;28;20218;-77
2023/12/14 14:22:16;;;;;;;13.90;8.07;;;;;;;;;;5051695;28;20215;-76